Time;durP1;ratioP1;P1;durP2;ratioP2;P2;SDS_P1;SDS_P2;PMS_P1;PMS_P2;Temp;Humidity;BMP_temperature;BMP_pressure;BME280_temperature;BME280_humidity;BME280_pressure;Samples;Min_cycle;Max_cycle;Signal;HPM_P1;HPM_P2
2023/09/12 04:12:12;;;;;;;23.00;20.60;;;20.50;99.90;;;;;;5111561;27;20618;-59
2023/09/12 04:14:38;;;;;;;21.67;19.07;;;20.40;99.90;;;;;;5111727;28;20437;-58
2023/09/12 04:17:05;;;;;;;20.70;18.20;;;20.40;99.90;;;;;;5111680;28;20440;-58
2023/09/12 04:19:32;;;;;;;19.90;17.97;;;20.40;99.90;;;;;;5111114;28;20460;-58
2023/09/12 04:21:59;;;;;;;20.50;18.17;;;20.40;99.90;;;;;;5111242;28;20457;-57
2023/09/12 04:24:26;;;;;;;19.20;17.30;;;20.30;99.90;;;;;;5111214;28;20445;-58
2023/09/12 04:26:54;;;;;;;18.37;16.70;;;20.30;99.90;;;;;;5110850;28;20437;-58
2023/09/12 04:29:22;;;;;;;20.17;17.80;;;20.20;99.90;;;;;;5113091;28;20445;-58
2023/09/12 04:31:50;;;;;;;19.20;16.00;;;20.20;99.90;;;;;;5111685;28;21001;-57
2023/09/12 04:34:16;;;;;;;17.80;15.90;;;20.20;99.90;;;;;;5110983;28;20968;-58
2023/09/12 04:36:43;;;;;;;18.30;16.40;;;20.20;99.90;;;;;;5111557;28;20441;-57
2023/09/12 04:39:10;;;;;;;16.77;14.93;;;20.10;99.90;;;;;;5111559;28;20449;-58
2023/09/12 04:41:37;;;;;;;17.80;16.07;;;20.10;99.90;;;;;;5111923;28;20454;-58
2023/09/12 04:44:04;;;;;;;21.90;17.50;;;20.10;99.90;;;;;;5111524;28;20449;-57
2023/09/12 04:46:32;;;;;;;19.13;17.13;;;20.10;99.90;;;;;;5112111;28;20448;-58
2023/09/12 04:48:59;;;;;;;18.33;16.50;;;20.00;99.90;;;;;;5112044;28;20444;-57
2023/09/12 04:51:27;;;;;;;19.60;16.17;;;20.00;99.90;;;;;;5111687;28;20853;-57
2023/09/12 04:53:53;;;;;;;16.67;14.87;;;19.90;99.90;;;;;;5112086;28;20488;-57
2023/09/12 04:56:20;;;;;;;15.73;13.63;;;20.00;99.90;;;;;;5111860;28;20961;-58
2023/09/12 04:58:48;;;;;;;15.53;14.03;;;19.90;99.90;;;;;;5111857;28;20441;-58
2023/09/12 05:01:15;;;;;;;16.00;14.33;;;20.00;99.90;;;;;;5111355;28;20437;-57
2023/09/12 05:03:43;;;;;;;14.23;12.70;;;19.90;99.90;;;;;;5112332;28;20441;-57
2023/09/12 05:06:11;;;;;;;14.43;12.77;;;19.90;99.90;;;;;;5111769;28;20863;-57
2023/09/12 05:08:37;;;;;;;14.07;12.77;;;19.90;99.90;;;;;;5112298;28;20558;-58
2023/09/12 05:11:04;;;;;;;14.03;12.63;;;20.00;99.90;;;;;;5112161;28;20829;-58
2023/09/12 05:13:31;;;;;;;18.10;13.07;;;20.00;99.90;;;;;;5112864;28;20953;-57
2023/09/12 05:15:58;;;;;;;14.20;12.77;;;20.00;99.90;;;;;;5111280;28;20441;-57
2023/09/12 05:18:25;;;;;;;13.77;12.27;;;20.10;99.90;;;;;;5113490;28;20444;-58
2023/09/12 05:20:53;;;;;;;13.90;12.20;;;20.10;99.90;;;;;;5114011;28;20441;-57
2023/09/12 05:23:19;;;;;;;13.23;12.03;;;20.20;99.90;;;;;;5102794;28;20519;-56
2023/09/12 05:25:46;;;;;;;13.00;11.63;;;20.20;99.90;;;;;;5104411;28;20438;-57
2023/09/12 05:28:15;;;;;;;13.03;10.80;;;20.20;99.90;;;;;;5103835;28;20782;-58
2023/09/12 05:30:42;;;;;;;11.23;10.10;;;20.30;99.90;;;;;;5102194;28;20474;-57
2023/09/12 05:33:09;;;;;;;10.63;9.53;;;20.30;99.90;;;;;;5102695;28;20473;-57
2023/09/12 05:35:36;;;;;;;15.30;9.90;;;20.30;99.90;;;;;;5099840;28;20434;-58
2023/09/12 05:38:04;;;;;;;13.50;10.97;;;20.30;99.90;;;;;;5102452;28;20442;-57
2023/09/12 05:40:31;;;;;;;10.97;9.87;;;20.30;99.90;;;;;;5103236;28;20810;-58
2023/09/12 05:42:58;;;;;;;11.30;10.20;;;20.30;99.90;;;;;;5101773;28;20469;-58
2023/09/12 05:45:25;;;;;;;12.50;9.30;;;20.30;99.90;;;;;;5100807;28;20450;-58
2023/09/12 05:47:52;;;;;;;10.60;9.60;;;20.30;99.90;;;;;;5099974;28;20439;-57
2023/09/12 05:50:18;;;;;;;10.23;9.07;;;20.30;99.90;;;;;;5100841;28;20442;-58
2023/09/12 05:52:45;;;;;;;10.97;8.50;;;20.30;99.90;;;;;;5104616;28;20833;-57
2023/09/12 05:55:13;;;;;;;10.13;9.07;;;20.20;99.90;;;;;;5104356;28;20437;-59
2023/09/12 05:57:40;;;;;;;12.90;9.70;;;20.20;99.90;;;;;;5106099;28;20438;-57
2023/09/12 06:00:11;;;;;;;16.30;10.60;;;20.10;99.90;;;;;;5103093;28;20934;-59
2023/09/12 06:02:37;;;;;;;14.30;10.40;;;19.90;99.90;;;;;;5101301;28;20858;-58
2023/09/12 06:05:04;;;;;;;11.97;10.50;;;19.60;99.90;;;;;;5099016;28;20441;-60
2023/09/12 06:07:32;;;;;;;11.47;10.30;;;19.30;99.90;;;;;;5104263;28;20470;-59
2023/09/12 06:09:59;;;;;;;21.53;10.50;;;19.00;99.90;;;;;;5102184;28;20434;-60
2023/09/12 06:12:27;;;;;;;8.80;7.20;;;18.90;99.90;;;;;;5096753;28;20924;-58
2023/09/12 06:14:55;;;;;;;7.20;6.47;;;18.80;99.90;;;;;;5096076;28;20438;-60
2023/09/12 06:17:22;;;;;;;13.90;7.97;;;18.50;99.90;;;;;;5096362;28;20442;-59
2023/09/12 06:19:50;;;;;;;13.23;7.73;;;18.40;99.90;;;;;;5095985;28;20489;-59
2023/09/12 06:22:17;;;;;;;10.40;6.50;;;18.30;99.90;;;;;;5096101;28;20510;-58
2023/09/12 06:24:44;;;;;;;10.50;7.40;;;18.30;99.90;;;;;;5095994;28;20447;-58
2023/09/12 06:27:12;;;;;;;7.90;7.13;;;18.20;99.90;;;;;;5095668;28;20442;-58
2023/09/12 06:29:40;;;;;;;9.90;7.40;;;18.20;99.90;;;;;;5095081;28;20442;-59
2023/09/12 06:32:07;;;;;;;9.67;7.83;;;18.30;99.90;;;;;;5102209;28;20485;-59
2023/09/12 06:34:33;;;;;;;11.90;9.00;;;18.30;99.90;;;;;;5098510;28;20434;-59
2023/09/12 06:37:00;;;;;;;9.43;8.53;;;18.30;99.90;;;;;;5097937;28;20532;-58
2023/09/12 06:39:27;;;;;;;10.97;8.73;;;18.30;99.90;;;;;;5095183;28;20447;-62
2023/09/12 06:41:54;;;;;;;11.57;9.40;;;18.20;99.90;;;;;;5096039;28;20454;-61
2023/09/12 06:44:20;;;;;;;10.90;9.90;;;18.20;99.90;;;;;;5096001;28;20445;-59
2023/09/12 06:46:48;;;;;;;12.03;10.70;;;18.20;99.90;;;;;;5095576;28;20438;-60
2023/09/12 06:49:15;;;;;;;14.33;11.27;;;18.20;99.90;;;;;;5095083;28;20766;-60
2023/09/12 06:51:42;;;;;;;16.13;13.07;;;18.30;99.90;;;;;;5094701;28;20493;-60
2023/09/12 06:54:08;;;;;;;16.27;14.57;;;18.30;99.90;;;;;;5094923;28;20446;-59
2023/09/12 06:56:37;;;;;;;17.10;15.30;;;18.40;99.90;;;;;;5094504;28;20445;-59
2023/09/12 06:59:04;;;;;;;17.80;15.70;;;18.40;99.90;;;;;;5094922;28;20438;-60
2023/09/12 07:01:31;;;;;;;18.00;16.13;;;18.40;99.90;;;;;;5095342;28;20451;-61
2023/09/12 07:03:59;;;;;;;16.60;15.00;;;18.50;99.90;;;;;;5095769;28;20453;-60
2023/09/12 07:06:25;;;;;;;18.90;16.40;;;18.50;99.90;;;;;;5094935;28;20499;-58
2023/09/12 07:08:52;;;;;;;17.73;15.37;;;18.60;99.90;;;;;;5095567;28;20549;-59
2023/09/12 07:11:19;;;;;;;17.50;15.67;;;18.60;99.90;;;;;;5094833;28;20842;-60
2023/09/12 07:13:46;;;;;;;17.43;15.70;;;18.70;99.90;;;;;;5095074;28;20445;-61
2023/09/12 07:16:13;;;;;;;17.33;15.57;;;18.90;99.90;;;;;;5095624;28;20443;-60
2023/09/12 07:18:39;;;;;;;18.93;15.10;;;18.90;99.90;;;;;;5094771;28;20449;-60
2023/09/12 07:21:11;;;;;;;17.23;15.37;;;19.00;99.90;;;;;;5094878;28;20431;-60
2023/09/12 07:23:37;;;;;;;17.77;15.80;;;19.20;99.90;;;;;;5095367;28;20924;-61
2023/09/12 07:26:04;;;;;;;16.90;15.20;;;19.30;99.90;;;;;;5095032;28;20450;-60
2023/09/12 07:28:31;;;;;;;17.40;15.63;;;19.30;99.90;;;;;;5094550;28;20911;-60
2023/09/12 07:30:58;;;;;;;19.77;17.13;;;19.40;99.90;;;;;;5094967;28;20461;-60
2023/09/12 07:33:25;;;;;;;19.07;17.20;;;19.50;99.90;;;;;;5094404;28;20831;-65
2023/09/12 07:35:53;;;;;;;19.90;18.00;;;19.60;99.90;;;;;;5094770;28;20873;-59
2023/09/12 07:38:22;;;;;;;18.13;16.37;;;19.70;99.90;;;;;;5094607;28;20450;-61
2023/09/12 07:40:49;;;;;;;19.50;17.50;;;19.80;99.90;;;;;;5094578;28;20445;-59
2023/09/12 07:43:15;;;;;;;18.50;16.63;;;19.90;99.90;;;;;;5094691;28;20538;-59
2023/09/12 07:45:43;;;;;;;18.77;16.93;;;19.90;99.90;;;;;;5093989;28;20474;-60
2023/09/12 07:48:11;;;;;;;20.90;17.20;;;20.00;99.90;;;;;;5094004;28;20453;-60
2023/09/12 07:50:38;;;;;;;20.37;18.30;;;20.10;99.90;;;;;;5093823;28;20851;-60
2023/09/12 07:53:05;;;;;;;17.57;15.97;;;20.20;99.90;;;;;;5093792;28;20550;-58
2023/09/12 07:55:45;;;;;;;18.83;17.03;;;20.30;99.90;;;;;;5094009;28;20442;-60
2023/09/12 07:58:12;;;;;;;18.57;16.60;;;20.50;99.90;;;;;;5094029;28;20513;-61
2023/09/12 08:00:38;;;;;;;17.23;15.50;;;20.60;99.90;;;;;;5094907;28;20441;-61
2023/09/12 08:03:05;;;;;;;18.03;14.27;;;20.80;99.90;;;;;;5095568;28;20462;-60
2023/09/12 08:05:32;;;;;;;16.93;15.13;;;20.90;99.90;;;;;;5094548;28;20450;-60
2023/09/12 08:07:59;;;;;;;19.93;15.60;;;20.90;99.90;;;;;;5094425;28;20445;-60
2023/09/12 08:10:26;;;;;;;18.13;15.97;;;20.90;99.90;;;;;;5094356;28;20450;-60
2023/09/12 08:12:54;;;;;;;19.70;15.33;;;20.80;99.90;;;;;;5098170;28;20482;-59
2023/09/12 08:15:20;;;;;;;18.90;16.67;;;20.70;99.90;;;;;;5097130;28;20445;-60
2023/09/12 08:17:51;;;;;;;18.00;16.10;;;20.60;99.90;;;;;;5095447;28;20438;-60
2023/09/12 08:20:18;;;;;;;18.87;16.77;;;20.60;99.90;;;;;;5094120;28;20430;-59
2023/09/12 08:22:45;;;;;;;20.07;17.90;;;20.60;99.90;;;;;;5094084;28;20465;-60
2023/09/12 08:25:12;;;;;;;18.30;16.43;;;20.60;99.90;;;;;;5093521;28;20442;-60
2023/09/12 08:27:39;;;;;;;19.37;17.37;;;20.50;99.90;;;;;;5093261;28;20449;-60
2023/09/12 08:30:09;;;;;;;19.70;17.70;;;20.50;99.90;;;;;;5093838;28;20449;-60
2023/09/12 08:32:36;;;;;;;20.70;18.07;;;20.40;99.90;;;;;;5094265;28;20513;-60
2023/09/12 08:35:03;;;;;;;19.43;17.63;;;20.40;99.90;;;;;;5093697;28;20806;-60
2023/09/12 08:37:30;;;;;;;18.53;16.83;;;20.50;99.90;;;;;;5093903;28;20500;-59
2023/09/12 08:39:59;;;;;;;20.17;18.10;;;20.50;99.90;;;;;;5094063;28;20549;-59
2023/09/12 08:42:27;;;;;;;19.57;16.50;;;20.70;99.90;;;;;;5093592;28;20507;-60
2023/09/12 08:44:54;;;;;;;19.23;17.40;;;20.70;99.90;;;;;;5095107;28;20487;-60
2023/09/12 08:47:24;;;;;;;17.37;15.67;;;20.80;99.90;;;;;;5093665;28;20824;-60
2023/09/12 08:49:51;;;;;;;18.57;16.67;;;20.90;99.90;;;;;;5093646;28;20558;-60
2023/09/12 08:52:17;;;;;;;18.30;16.40;;;21.00;99.90;;;;;;5093179;28;20474;-59
2023/09/12 08:54:44;;;;;;;19.37;16.93;;;21.00;99.90;;;;;;5093791;28;20438;-59
2023/09/12 08:57:12;;;;;;;17.37;15.63;;;20.90;99.90;;;;;;5093932;28;20438;-59
2023/09/12 08:59:41;;;;;;;12.13;10.60;;;20.90;99.90;;;;;;5097652;28;20448;-59
2023/09/12 09:02:10;;;;;;;9.60;8.60;;;21.00;99.90;;;;;;5113077;28;20453;-60
2023/09/12 09:04:40;;;;;;;9.43;8.53;;;21.00;99.90;;;;;;5111929;28;20444;-60
2023/09/12 09:07:08;;;;;;;8.77;7.97;;;21.00;99.90;;;;;;5100156;28;20446;-60
2023/09/12 09:09:35;;;;;;;9.23;6.50;;;21.00;99.90;;;;;;5098296;28;20442;-59
2023/09/12 09:12:02;;;;;;;6.00;5.50;;;21.10;99.90;;;;;;5097992;28;20493;-60
2023/09/12 09:14:30;;;;;;;4.60;4.27;;;21.10;99.90;;;;;;5098267;28;20469;-60
2023/09/12 09:16:58;;;;;;;6.17;5.57;;;21.10;99.90;;;;;;5097476;28;20465;-57
2023/09/12 09:19:43;;;;;;;6.10;5.50;;;21.00;99.90;;;;;;5097444;28;20442;-59
2023/09/12 09:22:09;;;;;;;6.77;5.47;;;20.90;99.90;;;;;;5096833;28;20966;-59
2023/09/12 09:24:36;;;;;;;6.77;6.17;;;20.80;99.90;;;;;;5096373;28;20935;-59
2023/09/12 09:27:03;;;;;;;6.77;5.63;;;20.60;99.90;;;;;;5096880;28;20446;-59
2023/09/12 09:29:31;;;;;;;5.53;5.07;;;20.50;99.90;;;;;;5096606;28;20974;-59
2023/09/12 09:32:00;;;;;;;6.83;5.50;;;20.40;99.90;;;;;;5096806;28;20478;-59
2023/09/12 09:34:29;;;;;;;5.60;5.10;;;20.30;99.90;;;;;;5096748;28;20441;-60
2023/09/12 09:36:57;;;;;;;6.13;5.57;;;20.20;99.90;;;;;;5097244;28;20442;-60
2023/09/12 09:39:26;;;;;;;6.40;5.80;;;20.10;99.90;;;;;;5097298;28;20438;-60
2023/09/12 09:41:55;;;;;;;7.93;7.17;;;19.90;99.90;;;;;;5097025;28;20459;-62
2023/09/12 09:44:23;;;;;;;9.90;7.73;;;19.70;99.90;;;;;;5098416;28;20445;-61
2023/09/12 09:46:52;;;;;;;8.20;7.40;;;19.50;99.90;;;;;;5098326;28;20996;-60
2023/09/12 09:49:21;;;;;;;9.20;8.40;;;19.20;99.90;;;;;;5097749;28;20438;-59
2023/09/12 09:51:48;;;;;;;9.70;8.70;;;19.00;99.90;;;;;;5099863;28;21002;-60
2023/09/12 09:54:16;;;;;;;10.50;9.20;;;18.80;99.90;;;;;;5099882;28;20446;-61
2023/09/12 09:56:46;;;;;;;11.00;9.90;;;18.80;99.90;;;;;;5106401;28;20566;-61
2023/09/12 09:59:16;;;;;;;14.33;9.80;;;18.70;99.90;;;;;;5102604;28;20450;-59
2023/09/12 10:01:43;;;;;;;15.70;10.43;;;18.70;99.90;;;;;;5096851;28;20466;-60
2023/09/12 10:04:10;;;;;;;13.30;10.77;;;18.60;99.90;;;;;;5096639;28;20446;-60
2023/09/12 10:06:38;;;;;;;13.63;11.73;;;18.60;99.90;;;;;;5096171;28;20439;-60
2023/09/12 10:09:08;;;;;;;12.40;11.10;;;18.50;99.90;;;;;;5095413;28;20446;-60
2023/09/12 10:11:39;;;;;;;12.77;11.47;;;18.60;99.90;;;;;;5095141;28;20474;-59
2023/09/12 10:14:06;;;;;;;13.73;11.70;;;18.60;99.90;;;;;;5096119;28;20505;-59
2023/09/12 10:16:34;;;;;;;13.63;12.23;;;18.70;99.90;;;;;;5096470;28;20442;-59
2023/09/12 10:19:10;;;;;;;10.63;9.50;;;18.70;99.90;;;;;;5096486;28;20445;-59
2023/09/12 10:21:37;;;;;;;12.30;11.10;;;18.70;99.90;;;;;;5096952;28;20461;-61
2023/09/12 10:24:06;;;;;;;12.50;10.27;;;18.70;99.90;;;;;;5096223;28;20430;-63
2023/09/12 10:26:33;;;;;;;11.53;10.53;;;18.80;99.90;;;;;;5096577;28;20442;-59
2023/09/12 10:29:03;;;;;;;10.63;9.63;;;18.80;99.90;;;;;;5096415;28;20974;-62
2023/09/12 10:31:31;;;;;;;11.77;10.57;;;18.80;99.90;;;;;;5096050;28;20974;-59
2023/09/12 10:33:59;;;;;;;13.93;11.30;;;18.80;99.90;;;;;;5096617;28;20477;-59
2023/09/12 10:36:26;;;;;;;12.20;11.00;;;18.70;99.90;;;;;;5096242;28;20434;-59
2023/09/12 10:38:54;;;;;;;10.57;9.37;;;18.70;99.90;;;;;;5095207;28;20438;-60
2023/09/12 10:41:24;;;;;;;12.07;9.73;;;18.70;99.90;;;;;;5094813;28;20946;-59
2023/09/12 10:43:54;;;;;;;10.90;9.80;;;18.70;99.90;;;;;;5095951;28;20423;-59
2023/09/12 10:46:23;;;;;;;10.10;9.20;;;18.70;99.90;;;;;;5096405;28;20446;-60
2023/09/12 10:48:50;;;;;;;10.00;9.10;;;18.70;99.90;;;;;;5097126;28;20442;-58
2023/09/12 10:51:18;;;;;;;9.90;8.50;;;18.70;99.90;;;;;;5096056;28;20446;-60
2023/09/12 10:53:49;;;;;;;10.33;9.33;;;18.70;99.90;;;;;;5096525;28;20484;-58
2023/09/12 10:56:18;;;;;;;10.97;9.87;;;18.70;99.90;;;;;;5096693;28;20508;-59
2023/09/12 10:59:12;;;;;;;10.73;9.73;;;18.70;99.90;;;;;;5095965;28;20868;-60
2023/09/12 11:01:41;;;;;;;10.97;9.93;;;18.80;99.90;;;;;;5097020;28;20951;-60
2023/09/12 11:04:33;;;;;;;10.87;8.30;;;18.80;99.90;;;;;;5095524;28;20494;-58
2023/09/12 11:06:59;;;;;;;10.57;9.57;;;18.90;99.90;;;;;;5095587;28;20428;-59
2023/09/12 11:09:27;;;;;;;11.10;10.00;;;18.90;99.90;;;;;;5095384;28;20438;-59
2023/09/12 11:11:57;;;;;;;10.60;9.60;;;19.00;99.90;;;;;;5094806;28;20982;-57
2023/09/12 11:14:26;;;;;;;11.60;10.40;;;19.00;99.90;;;;;;5095424;28;20449;-56
2023/09/12 11:17:24;;;;;;;10.70;9.60;;;19.10;99.90;;;;;;5094920;28;20442;-59
2023/09/12 11:19:53;;;;;;;11.37;10.27;;;19.10;99.90;;;;;;5088311;28;20446;-58
2023/09/12 11:22:27;;;;;;;10.07;9.07;;;19.20;99.90;;;;;;5094475;28;20467;-60
2023/09/12 11:24:55;;;;;;;10.80;9.80;;;19.20;99.90;;;;;;5094338;28;20448;-61
2023/09/12 11:27:23;;;;;;;10.20;9.23;;;19.10;99.90;;;;;;5094378;28;20442;-59
2023/09/12 11:29:50;;;;;;;9.83;8.83;;;19.10;99.90;;;;;;5094595;28;20442;-60
2023/09/12 11:32:31;;;;;;;10.40;9.40;;;19.00;99.90;;;;;;5094820;28;20462;-59
2023/09/12 11:34:59;;;;;;;12.67;10.47;;;19.00;99.90;;;;;;5095078;28;20426;-60
2023/09/12 11:37:28;;;;;;;11.87;10.70;;;18.90;99.90;;;;;;5100373;28;20819;-61
2023/09/12 11:39:57;;;;;;;13.00;11.70;;;18.90;99.90;;;;;;5103275;28;20438;-61
2023/09/12 11:42:25;;;;;;;16.10;12.67;;;18.80;99.90;;;;;;5106462;28;20458;-62
2023/09/12 11:44:52;;;;;;;12.70;11.40;;;18.80;99.90;;;;;;5108819;28;20480;-60
2023/09/12 11:47:20;;;;;;;14.90;11.77;;;18.80;99.90;;;;;;5108724;28;20452;-61
2023/09/12 11:49:48;;;;;;;14.27;12.90;;;18.80;99.90;;;;;;5107756;28;20445;-60
2023/09/12 11:52:17;;;;;;;13.30;11.97;;;18.80;99.90;;;;;;5107061;28;20465;-61
2023/09/12 11:54:45;;;;;;;12.27;11.07;;;18.80;99.90;;;;;;5106380;28;20911;-61
2023/09/12 11:57:14;;;;;;;12.83;11.63;;;18.70;99.90;;;;;;5104460;28;20499;-60
2023/09/12 11:59:43;;;;;;;14.60;13.10;;;18.70;99.90;;;;;;5099900;28;20541;-61
2023/09/12 12:02:11;;;;;;;13.90;12.23;;;18.70;99.90;;;;;;5094507;28;20466;-61
2023/09/12 12:04:38;;;;;;;13.93;12.53;;;18.70;99.90;;;;;;5094682;28;20438;-60
2023/09/12 12:07:07;;;;;;;18.13;12.50;;;18.70;99.90;;;;;;5095530;28;20442;-61
2023/09/12 12:09:35;;;;;;;15.43;13.83;;;18.70;99.90;;;;;;5096533;28;20441;-61
2023/09/12 12:12:10;;;;;;;16.77;14.80;;;18.70;99.90;;;;;;5095163;28;20465;-61
2023/09/12 12:14:37;;;;;;;14.77;13.33;;;18.70;99.90;;;;;;5095387;28;20553;-61
2023/09/12 12:17:08;;;;;;;17.30;14.80;;;18.70;99.90;;;;;;5095103;28;20445;-62
2023/09/12 12:19:36;;;;;;;17.47;14.40;;;18.80;99.90;;;;;;5094298;28;20470;-61
2023/09/12 12:22:03;;;;;;;15.27;13.50;;;18.70;99.90;;;;;;5094771;28;20494;-61
2023/09/12 12:24:39;;;;;;;18.47;15.03;;;18.70;99.90;;;;;;5095247;28;20430;-60
2023/09/12 12:27:07;;;;;;;14.33;12.83;;;18.70;99.90;;;;;;5095282;28;20444;-59
2023/09/12 12:29:34;;;;;;;14.87;13.33;;;18.80;99.90;;;;;;5097435;28;20442;-60
2023/09/12 12:32:02;;;;;;;17.83;14.13;;;18.80;99.90;;;;;;5103381;28;20460;-59
2023/09/12 12:34:28;;;;;;;14.43;12.73;;;18.80;99.90;;;;;;5106881;28;20477;-60
2023/09/12 12:36:55;;;;;;;16.53;14.87;;;18.90;99.90;;;;;;5102511;28;20449;-61
2023/09/12 12:39:23;;;;;;;13.43;12.13;;;19.00;99.90;;;;;;5100082;28;20434;-59
2023/09/12 12:41:53;;;;;;;13.50;12.23;;;19.00;99.90;;;;;;5098904;28;20461;-60
2023/09/12 12:44:20;;;;;;;14.20;12.80;;;19.00;99.90;;;;;;5100074;28;20419;-60
2023/09/12 12:46:50;;;;;;;13.37;12.07;;;19.00;99.90;;;;;;5101398;28;20445;-59
2023/09/12 12:49:17;;;;;;;13.93;12.53;;;19.10;99.90;;;;;;5099710;28;20429;-60
2023/09/12 12:51:44;;;;;;;13.03;11.73;;;19.20;99.90;;;;;;5098724;28;20469;-60
2023/09/12 12:54:11;;;;;;;12.93;11.73;;;19.30;99.90;;;;;;5100029;28;20465;-59
2023/09/12 12:56:39;;;;;;;11.97;10.87;;;19.40;99.90;;;;;;5098067;28;21015;-60
2023/09/12 12:59:08;;;;;;;12.53;9.77;;;19.40;99.90;;;;;;5098028;28;20438;-59
2023/09/12 13:01:36;;;;;;;10.13;9.13;;;19.50;99.90;;;;;;5098194;28;20462;-60
2023/09/12 13:04:05;;;;;;;10.83;9.83;;;19.60;99.90;;;;;;5098330;28;20434;-60
2023/09/12 13:06:35;;;;;;;12.23;10.70;;;19.70;99.90;;;;;;5098854;28;20441;-60
2023/09/12 13:09:04;;;;;;;10.50;9.60;;;19.90;99.90;;;;;;5097767;28;20481;-60
2023/09/12 13:11:31;;;;;;;10.60;9.60;;;20.10;99.90;;;;;;5096895;28;20486;-60
2023/09/12 13:13:58;;;;;;;10.93;9.63;;;20.40;99.90;;;;;;5097303;28;20477;-60
2023/09/12 13:16:26;;;;;;;10.80;8.70;;;20.60;99.90;;;;;;5097643;28;20442;-60
2023/09/12 13:18:53;;;;;;;10.60;9.53;;;20.90;99.90;;;;;;5098712;28;20512;-59
2023/09/12 13:21:19;;;;;;;11.90;9.40;;;21.10;99.90;;;;;;5097354;28;20442;-60
2023/09/12 13:23:46;;;;;;;10.03;9.03;;;21.40;99.90;;;;;;5097146;28;20814;-60
2023/09/12 13:26:13;;;;;;;8.00;7.20;;;21.50;99.90;;;;;;5097751;28;20434;-60
2023/09/12 13:28:40;;;;;;;9.03;7.50;;;21.70;99.90;;;;;;5097416;28;20465;-61
2023/09/12 13:31:07;;;;;;;7.83;6.97;;;21.80;99.90;;;;;;5097819;28;20479;-61
2023/09/12 13:33:36;;;;;;;8.50;7.80;;;21.80;99.90;;;;;;5097268;28;20482;-59
2023/09/12 13:36:03;;;;;;;8.30;7.60;;;21.80;99.90;;;;;;5096682;28;20435;-59
2023/09/12 13:38:30;;;;;;;6.80;6.20;;;21.90;99.90;;;;;;5097585;28;20829;-61
2023/09/12 13:40:56;;;;;;;7.47;6.77;;;22.00;99.90;;;;;;5097850;28;20453;-60
2023/09/12 13:43:23;;;;;;;7.10;6.50;;;22.10;99.90;;;;;;5097385;28;20454;-59
2023/09/12 13:45:50;;;;;;;9.60;6.77;;;22.20;99.90;;;;;;5097819;28;20441;-60
2023/09/12 13:48:18;;;;;;;7.63;6.63;;;22.30;99.90;;;;;;5096532;28;20442;-59
2023/09/12 13:50:46;;;;;;;7.50;6.57;;;22.30;99.90;;;;;;5097276;28;20822;-58
2023/09/12 13:53:12;;;;;;;6.60;6.10;;;22.20;99.90;;;;;;5097453;28;20485;-60
2023/09/12 13:55:39;;;;;;;5.77;5.27;;;22.20;99.90;;;;;;5097747;28;20457;-61
2023/09/12 13:58:07;;;;;;;5.97;5.37;;;22.20;99.90;;;;;;5097092;28;20449;-59
2023/09/12 14:00:35;;;;;;;5.63;5.13;;;22.40;99.90;;;;;;5097035;28;20446;-61
2023/09/12 14:03:01;;;;;;;4.80;4.23;;;22.60;99.90;;;;;;5097417;28;20515;-60
2023/09/12 14:05:29;;;;;;;5.67;5.07;;;22.60;99.90;;;;;;5096762;28;20935;-60
2023/09/12 14:07:57;;;;;;;5.30;4.90;;;22.60;99.90;;;;;;5097063;28;20435;-60
2023/09/12 14:10:23;;;;;;;6.20;4.20;;;22.70;99.90;;;;;;5096342;28;20473;-60
2023/09/12 14:12:50;;;;;;;4.87;4.43;;;22.90;99.90;;;;;;5096700;28;20458;-59
2023/09/12 14:15:17;;;;;;;7.23;4.40;;;23.00;99.90;;;;;;5097052;28;20514;-60
2023/09/12 14:17:43;;;;;;;5.67;5.13;;;23.10;99.90;;;;;;5096897;28;20478;-60
2023/09/12 14:20:15;;;;;;;4.90;4.47;;;23.10;99.90;;;;;;5097023;28;20434;-60
2023/09/12 14:22:42;;;;;;;4.80;4.40;;;23.20;99.90;;;;;;5095497;28;20494;-60
2023/09/12 14:25:14;;;;;;;6.50;4.20;;;23.20;99.90;;;;;;5095989;28;20438;-60
2023/09/12 14:27:42;;;;;;;5.93;5.30;;;23.20;99.90;;;;;;5095824;28;20434;-60
2023/09/12 14:30:09;;;;;;;5.07;4.57;;;23.30;99.90;;;;;;5095877;28;20803;-60
2023/09/12 14:32:37;;;;;;;4.87;4.37;;;23.30;99.90;;;;;;5096268;28;20469;-60
2023/09/12 14:35:04;;;;;;;5.63;5.13;;;23.20;99.90;;;;;;5096082;28;20477;-59
2023/09/12 14:37:31;;;;;;;4.67;4.27;;;23.30;99.90;;;;;;5095964;28;20465;-60
2023/09/12 14:39:57;;;;;;;4.97;4.47;;;23.30;99.90;;;;;;5095427;28;20438;-59
2023/09/12 14:42:26;;;;;;;4.47;4.07;;;23.30;99.90;;;;;;5096036;28;20462;-60
2023/09/12 14:44:52;;;;;;;4.20;3.90;;;23.20;99.90;;;;;;5095626;28;20435;-59
2023/09/12 14:47:19;;;;;;;4.27;3.87;;;23.20;99.90;;;;;;5095863;28;20466;-60
2023/09/12 14:49:46;;;;;;;4.43;4.10;;;23.30;99.90;;;;;;5096075;28;20452;-59
2023/09/12 14:52:12;;;;;;;5.07;4.50;;;23.20;99.90;;;;;;5095938;28;20462;-60
2023/09/12 14:54:39;;;;;;;5.47;4.83;;;23.30;99.90;;;;;;5094963;28;20474;-60
2023/09/12 14:57:06;;;;;;;4.67;4.17;;;23.30;99.90;;;;;;5096208;28;20485;-60
2023/09/12 14:59:34;;;;;;;4.47;4.03;;;23.40;99.90;;;;;;5096163;28;20560;-60
2023/09/12 15:02:00;;;;;;;4.87;3.70;;;23.50;99.90;;;;;;5096082;28;20462;-60
2023/09/12 15:04:27;;;;;;;4.07;3.60;;;23.40;99.90;;;;;;5095618;28;20438;-60
2023/09/12 15:06:54;;;;;;;4.03;3.70;;;23.40;99.90;;;;;;5095699;28;20449;-59
2023/09/12 15:09:21;;;;;;;4.63;4.20;;;23.40;99.90;;;;;;5095900;28;20450;-60
2023/09/12 15:11:47;;;;;;;4.60;3.90;;;23.40;99.90;;;;;;5097082;28;20990;-60
2023/09/12 15:14:15;;;;;;;4.53;4.13;;;23.40;99.90;;;;;;5098680;28;20513;-61
2023/09/12 15:16:43;;;;;;;4.00;3.50;;;23.40;99.90;;;;;;5097581;28;20438;-60
2023/09/12 15:19:10;;;;;;;4.00;3.60;;;23.40;99.90;;;;;;5097008;28;20450;-59
2023/09/12 15:21:37;;;;;;;5.00;3.00;;;23.40;99.90;;;;;;5095735;28;20978;-60
2023/09/12 15:24:04;;;;;;;4.20;3.13;;;23.40;99.90;;;;;;5097166;28;20434;-61
2023/09/12 15:26:31;;;;;;;3.90;3.50;;;23.30;99.90;;;;;;5097008;28;20566;-60
2023/09/12 15:28:58;;;;;;;4.60;3.53;;;23.30;99.90;;;;;;5096749;28;20529;-61
2023/09/12 15:31:25;;;;;;;3.80;3.40;;;23.30;99.90;;;;;;5096806;28;20548;-60
2023/09/12 15:33:54;;;;;;;3.77;3.47;;;23.40;99.90;;;;;;5096021;28;20474;-59
2023/09/12 15:36:21;;;;;;;4.70;3.93;;;23.40;99.90;;;;;;5095900;28;20760;-60
2023/09/12 15:38:48;;;;;;;4.40;4.00;;;23.40;99.90;;;;;;5095203;28;20446;-62
2023/09/12 15:41:15;;;;;;;3.87;3.53;;;23.40;99.90;;;;;;5094965;28;20442;-61
2023/09/12 15:43:42;;;;;;;4.70;3.90;;;23.40;99.90;;;;;;5095163;28;20438;-62
2023/09/12 15:46:08;;;;;;;3.47;3.17;;;23.40;99.90;;;;;;5095266;28;20931;-61
2023/09/12 15:48:35;;;;;;;4.43;4.03;;;23.30;99.90;;;;;;5095567;28;20443;-60
2023/09/12 15:51:05;;;;;;;4.70;3.63;;;23.30;99.90;;;;;;5095379;28;20438;-61
2023/09/12 15:53:32;;;;;;;4.03;3.70;;;23.20;99.90;;;;;;5097457;28;20458;-60
2023/09/12 15:55:58;;;;;;;3.80;3.50;;;23.20;99.90;;;;;;5095739;28;20442;-62
2023/09/12 15:58:26;;;;;;;4.40;3.47;;;23.10;99.90;;;;;;5095663;28;20442;-61
2023/09/12 16:00:54;;;;;;;3.80;3.47;;;23.10;99.90;;;;;;5094514;28;20438;-62
2023/09/12 16:03:21;;;;;;;5.20;4.27;;;23.00;99.90;;;;;;5095173;28;20465;-61
2023/09/12 16:05:48;;;;;;;4.00;3.70;;;23.00;99.90;;;;;;5095678;28;20439;-61
2023/09/12 16:08:16;;;;;;;4.90;3.90;;;23.00;99.90;;;;;;5096156;28;20438;-60
2023/09/12 16:10:43;;;;;;;4.10;3.70;;;22.90;99.90;;;;;;5094332;28;20989;-59
2023/09/12 16:13:10;;;;;;;4.60;4.20;;;22.90;99.90;;;;;;5095367;28;20454;-60
2023/09/12 16:15:36;;;;;;;4.50;3.90;;;22.90;99.90;;;;;;5094342;28;20474;-59
2023/09/12 16:18:03;;;;;;;4.73;4.30;;;22.90;99.90;;;;;;5094823;28;20438;-59
2023/09/12 16:20:30;;;;;;;4.90;4.50;;;22.90;99.90;;;;;;5094790;28;20434;-59
2023/09/12 16:22:57;;;;;;;7.57;4.87;;;22.90;99.90;;;;;;5095132;28;20461;-59
2023/09/12 16:25:25;;;;;;;5.57;5.13;;;22.90;99.90;;;;;;5095686;28;20434;-59
2023/09/12 16:27:52;;;;;;;6.63;6.03;;;22.80;99.90;;;;;;5095080;28;20553;-60
2023/09/12 16:30:18;;;;;;;6.43;5.83;;;22.80;99.90;;;;;;5094843;28;20970;-58
2023/09/12 16:32:45;;;;;;;6.20;5.00;;;22.80;99.90;;;;;;5095020;28;20469;-59
2023/09/12 16:35:12;;;;;;;6.10;5.50;;;22.80;99.90;;;;;;5094492;28;20473;-58
2023/09/12 16:37:39;;;;;;;6.33;5.47;;;22.90;99.90;;;;;;5096114;28;20449;-58
2023/09/12 16:40:07;;;;;;;6.97;5.60;;;22.90;99.90;;;;;;5094348;28;20446;-59
2023/09/12 16:42:36;;;;;;;7.13;6.50;;;22.90;99.90;;;;;;5096194;28;20471;-60
2023/09/12 16:45:04;;;;;;;6.50;5.90;;;22.90;99.90;;;;;;5095430;28;20440;-59
2023/09/12 16:47:31;;;;;;;6.83;5.83;;;22.90;99.90;;;;;;5095125;28;20481;-60
2023/09/12 16:49:58;;;;;;;7.17;6.47;;;22.90;99.90;;;;;;5096881;28;20452;-60